.
WxDataArchive / Data Records for 2011-09-28
2011-09-27 September 2011 2011-09-29

Data Records for Wednesday, 28 September 2011

Time	Temp	Chill	HIndex	Humid	Dewpt	 Wind 	HiWind	WindDir	Rain 	Barom 
-----	----	-----	------	-----	-----	------	------	-------	-----	----- 
00:00	54.4	54.4	54.4	93	52.4	0	1	270	0.00	29.791 
00:05	54.4	54.4	54.4	93	52.4	0	1	270	0.00	29.791 
00:10	54.4	54.4	54.4	93	52.4	0	1	270	0.00	29.791 
00:15	54.4	54.4	54.4	93	52.4	0	1	270	0.00	29.785 
00:20	54.4	54.4	54.4	93	52.4	0	1	270	0.00	29.785 
00:25	54.4	54.4	54.4	93	52.4	0	3	270	0.00	29.785 
00:30	54.5	54.5	54.5	92	52.2	0	2	270	0.00	29.782 
00:35	54.5	54.5	54.5	92	52.2	0	2	270	0.00	29.782 
00:40	54.5	54.5	54.5	92	52.2	0	2	270	0.00	29.782 
00:45	54.5	54.5	54.5	92	52.2	0	2	270	0.00	29.781 
00:50	54.5	54.5	54.5	92	52.2	0	2	68	0.00	29.781 
00:55	54.5	54.5	54.5	92	52.2	0	1	68	0.00	29.781 
01:00	54.5	54.5	54.5	92	52.2	0	2	68	0.00	29.776 
01:05	54.5	54.5	54.5	92	52.2	0	2	112	0.00	29.776 
01:10	54.5	54.5	54.5	92	52.2	0	3	112	0.00	29.776 
01:15	54.5	54.5	54.5	92	52.2	0	3	112	0.00	29.772 
01:20	54.5	54.5	54.5	92	52.2	0	2	112	0.00	29.772 
01:25	54.5	54.5	54.5	92	52.2	0	3	112	0.00	29.772 
01:30	54.7	54.7	54.7	92	52.4	0	2	112	0.00	29.766 
01:35	54.7	54.7	54.7	91	52.1	0	3	135	0.00	29.766 
01:40	54.7	54.7	54.7	91	52.1	0	1	135	0.00	29.766 
01:45	54.7	54.7	54.7	91	52.1	0	2	135	0.00	29.765 
01:50	54.7	54.7	54.7	91	52.1	0	1	135	0.00	29.765 
01:55	54.7	54.7	54.7	91	52.1	0	1	135	0.00	29.765 
02:00	54.7	54.7	54.7	91	52.1	0	2	135	0.00	29.762 
02:05	54.7	54.7	54.7	91	52.1	0	2	135	0.00	29.762 
02:10	54.7	54.7	54.7	91	52.1	0	3	135	0.00	29.762 
02:15	54.8	54.8	54.8	91	52.2	0	3	90	0.00	29.757 
02:20	54.8	54.8	54.8	91	52.2	0	2	90	0.00	29.757 
02:25	54.8	54.8	54.8	91	52.2	0	2	90	0.00	29.757 
02:30	54.8	54.8	54.8	90	51.9	0	1	90	0.00	29.763 
02:35	54.8	54.8	54.8	90	51.9	0	1	90	0.00	29.763 
02:40	54.8	54.8	54.8	90	51.9	0	2	90	0.00	29.763 
02:45	54.8	54.8	54.8	91	52.2	0	1	90	0.00	29.762 
02:50	54.8	54.8	54.8	91	52.2	0	1	90	0.00	29.762 
02:55	54.8	54.8	54.8	91	52.2	0	2	90	0.00	29.762 
03:00	54.8	54.8	54.8	91	52.2	0	1	90	0.00	29.756 
03:05	54.8	54.8	54.8	91	52.2	0	2	90	0.00	29.756 
03:10	54.8	54.8	54.8	91	52.2	0	1	90	0.00	29.756 
03:15	54.8	54.8	54.8	91	52.2	0	1	90	0.00	29.758 
03:20	54.7	54.7	54.7	91	52.1	0	1	90	0.00	29.758 
03:25	54.7	54.7	54.7	91	52.1	0	0	---	0.00	29.758 
03:30	54.7	54.7	54.7	91	52.1	0	1	90	0.00	29.756 
03:35	54.7	54.7	54.7	91	52.1	0	2	90	0.00	29.756 
03:40	54.7	54.7	54.7	92	52.4	0	1	90	0.00	29.756 
03:45	54.7	54.7	54.7	92	52.4	0	0	---	0.00	29.756 
03:50	54.7	54.7	54.7	92	52.4	0	2	90	0.00	29.756 
03:55	54.7	54.7	54.7	92	52.4	0	2	90	0.00	29.756 
04:00	54.7	54.7	54.7	92	52.4	0	1	90	0.00	29.754 
04:05	54.7	54.7	54.7	92	52.4	0	1	90	0.00	29.754 
04:10	54.5	54.5	54.5	92	52.2	0	0	---	0.00	29.754 
04:15	54.5	54.5	54.5	92	52.2	0	1	90	0.00	29.759 
04:20	54.5	54.5	54.5	92	52.2	0	1	90	0.00	29.759 
04:25	54.5	54.5	54.5	92	52.2	0	1	315	0.00	29.759 
04:30	54.5	54.5	54.5	92	52.2	0	1	315	0.00	29.760 
04:35	54.5	54.5	54.5	92	52.2	0	1	315	0.00	29.760 
04:40	54.5	54.5	54.5	92	52.2	0	4	292	0.00	29.760 
04:45	54.7	54.7	54.7	92	52.4	0	2	292	0.00	29.759 
04:50	54.7	54.7	54.7	92	52.4	0	1	292	0.00	29.759 
04:55	54.7	54.7	54.7	92	52.4	0	2	292	0.00	29.759 
05:00	54.7	54.7	54.7	92	52.4	0	1	292	0.00	29.760 
05:05	54.7	54.7	54.7	92	52.4	0	2	292	0.00	29.760 
05:10	54.7	54.7	54.7	92	52.4	0	1	292	0.00	29.760 
05:15	54.7	54.7	54.7	92	52.4	0	1	292	0.00	29.757 
05:20	54.7	54.7	54.7	92	52.4	0	0	---	0.00	29.757 
05:25	54.7	54.7	54.7	92	52.4	0	0	---	0.00	29.757 
05:30	54.7	54.7	54.7	92	52.4	0	0	---	0.00	29.760 
05:35	54.5	54.5	54.5	92	52.2	0	1	292	0.00	29.760 
05:40	54.5	54.5	54.5	92	52.2	0	1	292	0.00	29.760 
05:45	54.5	54.5	54.5	92	52.2	0	1	292	0.00	29.764 
05:50	54.5	54.5	54.5	92	52.2	0	0	---	0.00	29.764 
05:55	54.5	54.5	54.5	92	52.2	0	1	292	0.00	29.764 
06:00	54.5	54.5	54.5	92	52.2	0	0	---	0.00	29.762 
06:05	54.5	54.5	54.5	92	52.2	0	0	---	0.00	29.762 
06:10	54.4	54.4	54.4	92	52.1	0	1	292	0.00	29.762 
06:15	54.4	54.4	54.4	93	52.4	0	0	---	0.00	29.770 
06:20	54.4	54.4	54.4	93	52.4	0	0	---	0.00	29.770 
06:25	54.4	54.4	54.4	93	52.4	0	0	---	0.00	29.770 
06:30	54.4	54.4	54.4	93	52.4	0	1	292	0.00	29.772 
06:35	54.4	54.4	54.4	93	52.4	0	0	---	0.00	29.772 
06:40	54.4	54.4	54.4	93	52.4	0	0	---	0.00	29.772 
06:45	54.4	54.4	54.4	93	52.4	0	0	---	0.00	29.774 
06:50	54.4	54.4	54.4	93	52.4	0	0	---	0.00	29.774 
06:55	54.4	54.4	54.4	93	52.4	0	0	---	0.00	29.774 
07:00	54.4	54.4	54.4	93	52.4	0	1	292	0.00	29.775 
07:05	54.4	54.4	54.4	93	52.4	0	0	---	0.00	29.775 
07:10	54.4	54.4	54.4	93	52.4	0	0	---	0.00	29.775 
07:15	54.4	54.4	54.4	93	52.4	0	1	292	0.00	29.774 
07:20	54.4	54.4	54.4	93	52.4	0	0	---	0.00	29.774 
07:25	54.4	54.4	54.4	93	52.4	0	0	---	0.00	29.774 
07:30	54.4	54.4	54.4	93	52.4	0	0	---	0.00	29.777 
07:35	54.4	54.4	54.4	93	52.4	0	0	---	0.00	29.777 
07:40	54.4	54.4	54.4	93	52.4	0	1	292	0.00	29.777 
07:45	54.4	54.4	54.4	93	52.4	0	1	292	0.00	29.783 
07:50	54.4	54.4	54.4	93	52.4	0	1	292	0.00	29.783 
07:55	54.4	54.4	54.4	93	52.4	0	0	---	0.00	29.783 
08:00	54.4	54.4	54.4	93	52.4	0	0	---	0.00	29.788 
08:05	54.4	54.4	54.4	94	52.7	0	0	---	0.00	29.788 
08:10	54.4	54.4	54.4	94	52.7	0	0	---	0.00	29.788 
08:15	54.4	54.4	54.4	94	52.7	0	0	---	0.00	29.791 
08:20	54.4	54.4	54.4	94	52.7	0	0	---	0.00	29.791 
08:25	54.5	54.5	54.5	94	52.8	0	0	---	0.00	29.791 
08:30	54.5	54.5	54.5	94	52.8	0	0	---	0.00	29.791 
08:35	54.5	54.5	54.5	94	52.8	0	0	---	0.00	29.791 
08:40	54.7	54.7	54.7	94	53.0	0	0	---	0.00	29.791 
08:45	54.7	54.7	54.7	94	53.0	0	1	292	0.00	29.791 
08:50	54.8	54.8	54.8	94	53.1	0	1	292	0.00	29.791 
08:55	54.8	54.8	54.8	94	53.1	0	1	292	0.00	29.791 
09:00	54.8	54.8	54.8	94	53.1	0	2	292	0.00	29.794 
09:05	54.8	54.8	54.8	94	53.1	0	1	292	0.01	29.794 
09:10	55.0	55.0	55.0	94	53.3	0	0	---	0.00	29.794 
09:15	55.0	55.0	55.0	94	53.3	0	0	---	0.00	29.802 
09:20	55.0	55.0	55.0	94	53.3	0	0	---	0.00	29.802 
09:25	55.0	55.0	55.0	94	53.3	0	0	---	0.00	29.802 
09:30	55.0	55.0	55.0	94	53.3	0	0	---	0.00	29.803 
09:35	55.0	55.0	55.0	94	53.3	0	0	---	0.00	29.803 
09:40	55.0	55.0	55.0	94	53.3	0	0	---	0.00	29.803 
09:45	55.0	55.0	55.0	94	53.3	0	0	---	0.03	29.802 
09:50	55.0	55.0	55.0	94	53.3	0	1	292	0.01	29.802 
09:55	55.0	55.0	55.0	94	53.3	0	0	---	0.01	29.802 
10:00	55.0	55.0	55.0	94	53.3	0	1	292	0.00	29.801 
10:05	55.0	55.0	55.0	94	53.3	0	2	292	0.00	29.801 
10:10	55.1	55.1	55.1	95	53.7	0	1	292	0.00	29.801 
10:15	55.4	55.4	55.4	95	54.0	0	1	292	0.00	29.802 
10:20	55.6	55.6	55.6	95	54.2	0	2	292	0.00	29.802 
10:25	55.9	55.9	55.9	95	54.5	0	2	292	0.00	29.802 
10:30	56.3	56.3	56.3	95	54.9	0	2	45	0.00	29.797 
10:35	56.5	56.5	56.5	95	55.1	0	1	45	0.00	29.797 
10:40	56.5	56.5	56.5	95	55.1	0	3	45	0.00	29.797 
10:45	56.7	56.7	56.7	95	55.3	0	3	248	0.00	29.798 
10:50	56.5	56.5	56.5	94	54.8	0	3	248	0.00	29.798 
10:55	56.6	56.6	56.6	94	54.9	0	2	248	0.00	29.798 
11:00	56.6	56.6	56.6	94	54.9	0	2	248	0.00	29.797 
11:05	56.6	56.6	56.6	94	54.9	0	2	248	0.00	29.797 
11:10	56.6	56.6	56.6	94	54.9	0	2	248	0.00	29.797 
11:15	56.6	56.6	56.6	94	54.9	0	2	248	0.00	29.792 
11:20	56.6	56.6	56.6	93	54.6	0	3	248	0.00	29.792 
11:25	56.7	56.7	56.7	93	54.7	0	1	248	0.00	29.792 
11:30	56.9	56.9	56.9	93	54.9	0	1	248	0.00	29.790 
11:35	56.9	56.9	56.9	93	54.9	0	2	248	0.00	29.790 
11:40	57.0	57.0	57.0	93	55.0	0	1	248	0.00	29.790 
11:45	57.2	57.2	57.2	92	54.9	0	2	248	0.00	29.788 
11:50	57.3	57.3	57.3	92	55.0	0	1	248	0.00	29.788 
11:55	57.3	57.3	57.3	92	55.0	0	2	248	0.00	29.788 
12:00	57.3	57.3	57.3	91	54.7	0	3	248	0.00	29.787 
12:05	57.6	57.6	57.6	91	55.0	0	2	248	0.00	29.787 
12:10	57.6	57.6	57.6	90	54.7	0	2	248	0.00	29.787 
12:15	57.5	57.5	57.5	90	54.6	0	2	248	0.00	29.788 
12:20	57.6	57.6	57.6	90	54.7	0	2	248	0.00	29.788 
12:25	57.8	57.8	57.8	90	54.9	0	1	248	0.00	29.788 
12:30	58.0	58.0	58.0	89	54.8	0	2	248	0.00	29.788 
12:35	58.1	58.1	58.1	89	54.9	0	2	248	0.00	29.788 
12:40	58.3	58.3	58.3	88	54.8	0	3	248	0.00	29.788 
12:45	58.4	58.4	58.4	87	54.5	0	3	45	0.00	29.787 
12:50	58.6	58.6	58.6	87	54.7	0	2	248	0.00	29.787 
12:55	58.9	58.9	58.9	86	54.7	1	3	338	0.00	29.787 
13:00	59.0	59.0	59.0	85	54.5	0	3	225	0.00	29.783 
13:05	59.3	59.3	59.3	84	54.5	1	4	270	0.00	29.783 
13:10	60.4	60.4	60.4	82	54.9	1	4	248	0.00	29.783 
13:15	60.7	60.7	60.7	79	54.1	0	3	248	0.00	29.775 
13:20	60.4	60.4	60.4	77	53.2	1	4	270	0.00	29.775 
13:25	60.2	60.2	60.2	77	53.0	0	4	248	0.00	29.775 
13:30	59.9	59.9	59.9	77	52.7	0	4	90	0.00	29.775 
13:35	59.6	59.6	59.6	79	53.1	1	3	248	0.01	29.775 
13:40	59.2	59.2	59.2	82	53.7	0	3	248	0.00	29.775 
13:45	58.9	58.9	58.9	84	54.1	0	1	248	0.00	29.773 
13:50	58.7	58.7	58.7	86	54.5	0	1	248	0.00	29.773 
13:55	58.7	58.7	58.7	87	54.8	0	1	248	0.01	29.773 
14:00	58.6	58.6	58.6	87	54.7	0	1	248	0.00	29.772 
14:05	58.6	58.6	58.6	88	55.1	0	0	---	0.00	29.772 
14:10	58.4	58.4	58.4	88	54.9	0	1	248	0.00	29.772 
14:15	58.4	58.4	58.4	88	54.9	0	0	---	0.00	29.770 
14:20	58.4	58.4	58.4	88	54.9	0	0	---	0.00	29.770 
14:25	58.1	58.1	58.1	87	54.2	1	5	248	0.01	29.770 
14:30	57.3	57.3	57.3	87	53.5	0	4	270	0.03	29.775 
14:35	56.7	56.7	56.7	88	53.2	0	1	270	0.02	29.775 
14:40	56.5	56.5	56.5	89	53.3	0	1	270	0.00	29.775 
14:45	56.3	56.3	56.3	90	53.4	0	0	---	0.00	29.773 
14:50	56.6	56.6	56.6	91	54.0	0	1	270	0.00	29.773 
14:55	56.7	56.7	56.7	91	54.1	0	3	270	0.00	29.773 
15:00	57.0	57.0	57.0	91	54.4	0	2	270	0.00	29.763 
15:05	57.2	57.2	57.2	91	54.6	0	2	270	0.00	29.763 
15:10	57.2	57.2	57.2	91	54.6	0	2	270	0.00	29.763 
15:15	57.2	57.2	57.2	91	54.6	0	3	112	0.00	29.761 
15:20	57.3	57.3	57.3	91	54.7	0	2	112	0.00	29.761 
15:25	57.2	57.2	57.2	91	54.6	0	2	112	0.00	29.761 
15:30	57.2	57.2	57.2	91	54.6	0	1	90	0.00	29.762 
15:35	56.9	56.9	56.9	91	54.3	0	2	270	0.08	29.762 
15:40	56.9	56.9	56.9	92	54.6	0	2	315	0.00	29.762 
15:45	56.9	56.9	56.9	92	54.6	0	4	270	0.00	29.763 
15:50	56.7	56.7	56.7	92	54.4	0	3	270	0.02	29.763 
15:55	56.5	56.5	56.5	92	54.2	0	2	270	0.02	29.763 
16:00	56.2	56.2	56.2	92	53.9	0	2	270	0.03	29.768 
16:05	55.9	55.9	55.9	92	53.6	0	2	315	0.01	29.768 
16:10	55.7	55.7	55.7	93	53.7	0	1	315	0.00	29.768 
16:15	55.7	55.7	55.7	93	53.7	0	1	315	0.00	29.762 
16:20	55.9	55.9	55.9	93	53.9	0	2	315	0.01	29.762 
16:25	55.9	55.9	55.9	93	53.9	0	3	292	0.00	29.762 
16:30	56.2	56.2	56.2	94	54.5	0	1	292	0.00	29.761 
16:35	56.2	56.2	56.2	94	54.5	0	2	292	0.00	29.761 
16:40	56.2	56.2	56.2	94	54.5	0	1	292	0.00	29.761 
16:45	56.2	56.2	56.2	94	54.5	0	1	292	0.01	29.767 
16:50	56.2	56.2	56.2	94	54.5	0	4	292	0.00	29.767 
16:55	56.0	56.0	56.0	94	54.3	0	3	248	0.02	29.767 
17:00	55.9	55.9	55.9	94	54.2	0	2	248	0.01	29.767 
17:05	55.9	55.9	55.9	94	54.2	0	1	248	0.00	29.767 
17:10	55.9	55.9	55.9	94	54.2	0	1	248	0.00	29.767 
17:15	56.0	56.0	56.0	94	54.3	0	1	248	0.00	29.763 
17:20	56.3	56.3	56.3	95	54.9	0	1	248	0.00	29.763 
17:25	56.6	56.6	56.6	95	55.2	0	1	248	0.00	29.763 
17:30	56.9	56.9	56.9	95	55.5	0	1	248	0.00	29.761 
17:35	57.0	57.0	57.0	95	55.6	0	1	248	0.00	29.761 
17:40	57.2	57.2	57.2	95	55.8	0	2	248	0.00	29.761 
17:45	57.3	57.3	57.3	95	55.9	0	2	248	0.00	29.758 
17:50	57.2	57.2	57.2	95	55.8	0	3	248	0.00	29.758 
17:55	57.2	57.2	57.2	95	55.8	0	1	270	0.00	29.758 
18:00	57.2	57.2	57.2	95	55.8	0	1	270	0.00	29.760 
18:05	57.3	57.3	57.3	95	55.9	0	1	270	0.00	29.760 
18:10	57.2	57.2	57.2	95	55.8	0	1	270	0.00	29.760 
18:15	57.2	57.2	57.2	94	55.5	0	1	270	0.00	29.764 
18:20	57.0	57.0	57.0	95	55.6	0	1	270	0.00	29.764 
18:25	57.0	57.0	57.0	94	55.3	0	0	---	0.00	29.764 
18:30	57.0	57.0	57.0	95	55.6	0	0	---	0.00	29.762 
18:35	57.0	57.0	57.0	95	55.6	0	1	270	0.00	29.762 
18:40	57.0	57.0	57.0	95	55.6	0	1	270	0.00	29.762 
18:45	57.0	57.0	57.0	95	55.6	0	1	270	0.00	29.765 
18:50	56.9	56.9	56.9	94	55.2	0	1	270	0.00	29.765 
18:55	56.9	56.9	56.9	95	55.5	0	0	---	0.00	29.765 
19:00	56.9	56.9	56.9	94	55.2	0	0	---	0.00	29.766 
19:05	56.9	56.9	56.9	95	55.5	0	1	270	0.00	29.766 
19:10	56.7	56.7	56.7	95	55.3	0	1	270	0.00	29.766 
19:15	56.7	56.7	56.7	94	55.0	0	1	270	0.00	29.773 
19:20	56.6	56.6	56.6	94	54.9	0	1	270	0.00	29.773 
19:25	56.5	56.5	56.5	94	54.8	0	0	---	0.00	29.773 
19:30	56.5	56.5	56.5	95	55.1	0	0	---	0.00	29.773 
19:35	56.3	56.3	56.3	94	54.6	0	0	---	0.00	29.773 
19:40	56.2	56.2	56.2	94	54.5	0	0	---	0.00	29.773 
19:45	55.9	55.9	55.9	94	54.2	0	0	---	0.00	29.774 
19:50	55.7	55.7	55.7	94	54.0	0	0	---	0.00	29.774 
19:55	55.6	55.6	55.6	94	53.9	0	0	---	0.00	29.774 
20:00	55.4	55.4	55.4	94	53.7	0	0	---	0.00	29.775 
20:05	55.3	55.3	55.3	94	53.6	0	1	270	0.00	29.775 
20:10	55.1	55.1	55.1	94	53.4	0	0	---	0.00	29.775 
20:15	55.1	55.1	55.1	94	53.4	0	0	---	0.00	29.766 
20:20	55.0	55.0	55.0	94	53.3	0	0	---	0.00	29.766 
20:25	54.8	54.8	54.8	95	53.4	0	0	---	0.00	29.766 
20:30	54.7	54.7	54.7	95	53.3	0	0	---	0.00	29.762 
20:35	54.7	54.7	54.7	95	53.3	0	0	---	0.00	29.762 
20:40	54.7	54.7	54.7	95	53.3	0	0	---	0.00	29.762 
20:45	54.5	54.5	54.5	95	53.1	0	0	---	0.00	29.759 
20:50	54.5	54.5	54.5	95	53.1	0	0	---	0.00	29.759 
20:55	54.4	54.4	54.4	95	53.0	0	0	---	0.00	29.759 
21:00	54.2	54.2	54.2	95	52.8	0	0	---	0.00	29.761 
21:05	54.1	54.1	54.1	95	52.7	0	0	---	0.00	29.761 
21:10	53.9	53.9	53.9	95	52.5	0	0	---	0.00	29.761 
21:15	53.9	53.9	53.9	95	52.5	0	0	---	0.00	29.767 
21:20	53.8	53.8	53.8	95	52.4	0	0	---	0.00	29.767 
21:25	53.8	53.8	53.8	95	52.4	0	0	---	0.00	29.767 
21:30	53.9	53.9	53.9	95	52.5	0	0	---	0.00	29.774 
21:35	54.1	54.1	54.1	95	52.7	0	0	---	0.00	29.774 
21:40	54.4	54.4	54.4	95	53.0	0	0	---	0.00	29.774 
21:45	54.5	54.5	54.5	95	53.1	0	0	---	0.00	29.775 
21:50	54.7	54.7	54.7	96	53.6	0	0	---	0.00	29.775 
21:55	54.8	54.8	54.8	96	53.7	0	0	---	0.00	29.775 
22:00	54.8	54.8	54.8	95	53.4	0	0	---	0.00	29.779 
22:05	54.8	54.8	54.8	95	53.4	0	0	---	0.00	29.779 
22:10	54.8	54.8	54.8	96	53.7	0	0	---	0.00	29.779 
22:15	54.8	54.8	54.8	95	53.4	0	0	---	0.00	29.775 
22:20	54.8	54.8	54.8	95	53.4	0	0	---	0.00	29.775 
22:25	54.7	54.7	54.7	96	53.6	0	0	---	0.00	29.775 
22:30	54.7	54.7	54.7	96	53.6	0	0	---	0.00	29.775 
22:35	54.7	54.7	54.7	96	53.6	0	0	---	0.00	29.775 
22:40	54.7	54.7	54.7	96	53.6	0	0	---	0.00	29.775 
22:45	54.7	54.7	54.7	96	53.6	0	0	---	0.00	29.777 
22:50	54.8	54.8	54.8	96	53.7	0	1	270	0.00	29.777 
22:55	54.8	54.8	54.8	96	53.7	0	1	270	0.00	29.777 
23:00	55.0	55.0	55.0	96	53.9	0	1	270	0.00	29.776 
23:05	55.0	55.0	55.0	96	53.9	0	0	---	0.00	29.776 
23:10	54.8	54.8	54.8	96	53.7	0	0	---	0.00	29.776 
23:15	54.7	54.7	54.7	96	53.6	0	0	---	0.00	29.775 
23:20	54.7	54.7	54.7	96	53.6	0	0	---	0.00	29.775 
23:25	54.5	54.5	54.5	96	53.4	0	0	---	0.00	29.775 
23:30	54.4	54.4	54.4	96	53.3	0	0	---	0.00	29.781 
23:35	54.2	54.2	54.2	96	53.1	0	0	---	0.00	29.781 
23:40	54.4	54.4	54.4	96	53.3	0	0	---	0.01	29.781 
23:45	54.5	54.5	54.5	96	53.4	0	1	270	0.00	29.787 
23:50	54.7	54.7	54.7	96	53.6	0	3	270	0.00	29.787 
23:55	54.7	54.7	54.7	96	53.6	0	0	---	0.00	29.787 

CoCoRaHS
IN-AL-39
A2 Web Hosting
Creative Commons License
GoDaddy
search engine by freefind advanced

loaded 2018-11-14 00:38:49 • last modified 2010-11-18 10:43:29
Privacy PolicyDisclaimer
• wx.awcolley.com is powered by PmWiki v.2002016 •
• all content (unless otherwise noted) © 2018 A W Colley